Flugplatz Borghorst-Füchten (UL)

Hier findest Du alle Informationen zum Flugplatz Borghorst-Füchten (UL).

Informationen für Piloten zum Flugplatz Borghorst-Füchten

Hier findest Du alle relevanten Informationen, die Du als Pilot benötigst, um Borghorst-Füchten anzufliegen.

Flugplatz: Borghorst-Füchten ICAO-Code: UL Flugplatz
Frequenz Turm: 123.350 Mhz GAFOR Gebiet: 32
Frequenz Ground: 123.350 Mhz Mogas: nein
Platzrunde: N 0 ft Landegebühr: -
Platzhöhe: Sunrise: 03:19 Uhr UTC
Pisten: 06/24 - 610 m x 30 m, GRAS Sunset: 19:51 Uhr UTC

Mitglieder, die in Borghorst-Füchten fliegen

Flugwetter am Flugplatz Borghorst-Füchten

Die METAR Information stammen aus EDDG (15.99 km entfernt).

METAR Code:
2020/07/03 13:50
EDDG 031350Z 22013KT 180V250 9999 SCT030 20/13 Q1016 NOSIG

Flugschulen am Flugplatz Borghorst-Füchten

Am Flugplatz Borghorst-Füchten gibt es leider keine Flugschule.

Benachbarte Flugplätze und Flugschulen

Es gibt 15 weitere Flugplätze in einem Umkreis von 50 km um den Flugplatz Borghorst-Füchten.

Jetzt anmelden

Passwort vergessen

Umfrage Archiv

Wären Rettungsgeräte keine Pflicht mehr, würdet Ihr Euer UL trotzdem mit einem ausstatten?

Ja
82.4 %
Nein
17.6 %
Stimmen: 199 | Diskussion
Anzeige: Roland Aircraft
Statistik Alle Mitglieder

Aktuell sind 40 Besucher online, davon 1 Mitglied und 39 Gäste.


Mitglieder online:
Marvin_0 

Anzeige: VFR Sprechfunk Simulator


Anzeige: Pocket FMS